createdAt,value
2023-02-24T00:00:33.037Z,16.37
2023-02-24T00:00:52.624Z,16.95
2023-02-24T00:01:13.351Z,17.92
2023-02-24T00:01:26.202Z,17.20
2023-02-24T00:01:39.512Z,16.42
2023-02-24T00:02:00.138Z,16.30
2023-02-24T00:02:15.049Z,17.67
2023-02-24T00:02:29.466Z,17.58
2023-02-24T00:02:42.392Z,16.15
2023-02-24T00:02:55.188Z,16.40
2023-02-24T00:03:11.186Z,18.17
2023-02-24T00:03:24.350Z,18.00
2023-02-24T00:03:37.528Z,17.12
2023-02-24T00:03:56.812Z,16.40
2023-02-24T00:04:11.701Z,17.20
2023-02-24T00:04:24.503Z,16.85
2023-02-24T00:04:39.540Z,15.40
2023-02-24T00:04:52.609Z,15.65
2023-02-24T00:05:05.790Z,16.83
2023-02-24T00:05:18.866Z,17.35
2023-02-24T00:05:35.726Z,16.83
2023-02-24T00:05:49.996Z,16.35
2023-02-24T00:06:05.763Z,15.82
2023-02-24T00:06:18.679Z,15.80
2023-02-24T00:06:36.116Z,16.33
2023-02-24T00:06:48.985Z,16.45
2023-02-24T00:07:02.583Z,16.62
2023-02-24T00:07:16.911Z,16.85
2023-02-24T00:07:30.159Z,16.23
2023-02-24T00:07:42.942Z,15.98
2023-02-24T00:07:55.744Z,16.33
2023-02-24T00:08:08.541Z,16.75
2023-02-24T00:08:21.333Z,16.95
2023-02-24T00:08:34.123Z,17.42
2023-02-24T00:08:47.411Z,16.55
2023-02-24T00:09:00.220Z,14.82
2023-02-24T00:09:20.344Z,14.77
2023-02-24T00:09:33.470Z,17.48
2023-02-24T00:09:46.645Z,17.70
2023-02-24T00:09:59.718Z,16.52
2023-02-24T00:10:19.349Z,16.27
2023-02-24T00:10:32.845Z,16.58
2023-02-24T00:10:45.672Z,17.12
2023-02-24T00:10:58.632Z,16.85
2023-02-24T00:11:15.203Z,16.58
2023-02-24T00:11:28.160Z,17.40
2023-02-24T00:11:43.344Z,17.92
2023-02-24T00:11:57.863Z,15.90
2023-02-24T00:12:13.106Z,14.13
2023-02-24T00:12:25.968Z,14.50
2023-02-24T00:12:38.869Z,15.55
2023-02-24T00:12:53.995Z,15.95
2023-02-24T00:13:07.520Z,15.57
2023-02-24T00:13:22.421Z,16.08
2023-02-24T00:13:35.675Z,16.67
2023-02-24T00:13:48.569Z,16.10
2023-02-24T00:14:02.114Z,15.50
2023-02-24T00:14:16.219Z,16.52
2023-02-24T00:14:30.789Z,15.52
2023-02-24T00:14:44.486Z,16.80
2023-02-24T00:14:57.293Z,17.85
2023-02-24T00:15:10.228Z,16.25
2023-02-24T00:15:23.107Z,15.23
2023-02-24T00:15:35.877Z,16.35
2023-02-24T00:16:00.957Z,16.75
2023-02-24T00:16:17.485Z,17.70
2023-02-24T00:16:30.462Z,16.55
2023-02-24T00:16:45.082Z,15.40
2023-02-24T00:17:01.277Z,15.05
2023-02-24T00:17:14.660Z,16.90
2023-02-24T00:17:30.469Z,16.85
2023-02-24T00:17:46.391Z,15.85
2023-02-24T00:17:59.172Z,17.67
2023-02-24T00:18:11.962Z,18.30
2023-02-24T00:18:24.754Z,16.73
2023-02-24T00:18:37.549Z,15.07
2023-02-24T00:18:51.168Z,14.93
2023-02-24T00:19:04.489Z,14.55
2023-02-24T00:19:19.163Z,14.43
2023-02-24T00:19:35.118Z,16.48
2023-02-24T00:19:47.943Z,18.35
2023-02-24T00:20:00.731Z,17.40
2023-02-24T00:20:13.816Z,16.40
2023-02-24T00:20:26.630Z,14.52
2023-02-24T00:20:39.518Z,14.48
2023-02-24T00:20:56.415Z,15.48
2023-02-24T00:21:13.515Z,16.90
2023-02-24T00:21:26.318Z,15.52
2023-02-24T00:21:39.186Z,15.52
2023-02-24T00:21:52.127Z,16.00
2023-02-24T00:22:06.338Z,15.20
2023-02-24T00:22:20.359Z,15.20
2023-02-24T00:22:33.281Z,15.32
2023-02-24T00:22:46.094Z,14.80
2023-02-24T00:23:00.375Z,15.18
2023-02-24T00:23:18.531Z,15.60
2023-02-24T00:23:31.358Z,16.23
2023-02-24T00:23:46.692Z,16.02
2023-02-24T00:23:59.608Z,15.77
2023-02-24T00:24:12.637Z,16.05
2023-02-24T00:24:25.484Z,15.32
2023-02-24T00:24:38.345Z,14.73
2023-02-24T00:24:51.244Z,16.08
2023-02-24T00:25:04.332Z,16.12
2023-02-24T00:25:17.137Z,16.05
2023-02-24T00:25:29.958Z,15.30
2023-02-24T00:25:42.792Z,15.27
2023-02-24T00:26:00.209Z,15.23
2023-02-24T00:26:14.042Z,14.60
2023-02-24T00:26:27.013Z,15.13
2023-02-24T00:26:39.924Z,14.93
2023-02-24T00:26:54.482Z,15.05
2023-02-24T00:27:08.019Z,16.40
2023-02-24T00:27:20.955Z,17.42
2023-02-24T00:27:33.829Z,17.77
2023-02-24T00:27:46.633Z,16.70
2023-02-24T00:28:01.775Z,15.18
2023-02-24T00:28:14.633Z,14.23
2023-02-24T00:28:28.682Z,14.15
2023-02-24T00:28:41.611Z,14.50
2023-02-24T00:28:54.529Z,13.98
2023-02-24T00:29:09.563Z,15.15
2023-02-24T00:29:22.753Z,15.88
2023-02-24T00:29:37.684Z,16.33
2023-02-24T00:29:50.705Z,15.98
2023-02-24T00:30:05.317Z,15.07
2023-02-24T00:30:18.283Z,15.18
2023-02-24T00:30:33.119Z,14.52
2023-02-24T00:30:46.097Z,14.20
2023-02-24T00:31:05.853Z,15.50
2023-02-24T00:31:19.676Z,16.00
2023-02-24T00:31:33.057Z,16.15
2023-02-24T00:31:47.284Z,16.40
2023-02-24T00:32:00.937Z,16.23
2023-02-24T00:32:14.889Z,15.45
2023-02-24T00:32:28.343Z,14.96
2023-02-24T00:32:41.404Z,15.07
2023-02-24T00:32:54.361Z,14.80
2023-02-24T00:33:07.225Z,15.25
2023-02-24T00:33:23.560Z,16.98
2023-02-24T00:33:36.438Z,15.88
2023-02-24T00:33:49.523Z,14.32
2023-02-24T00:34:02.345Z,14.80
2023-02-24T00:34:15.704Z,15.15
2023-02-24T00:34:31.747Z,14.85
2023-02-24T00:34:44.566Z,14.98
2023-02-24T00:34:57.422Z,14.75
2023-02-24T00:35:10.292Z,14.20
2023-02-24T00:35:23.098Z,14.27
2023-02-24T00:35:35.969Z,15.68
2023-02-24T00:35:49.444Z,15.60
2023-02-24T00:36:10.061Z,14.98
2023-02-24T00:36:25.706Z,16.60
2023-02-24T00:36:38.650Z,15.55
2023-02-24T00:36:51.486Z,15.30
2023-02-24T00:37:07.020Z,15.65
2023-02-24T00:37:23.969Z,15.98
2023-02-24T00:37:36.831Z,14.93
2023-02-24T00:37:51.328Z,15.15
2023-02-24T00:38:04.632Z,15.70
2023-02-24T00:38:17.804Z,16.17
2023-02-24T00:38:35.884Z,16.67
2023-02-24T00:38:48.682Z,16.00
2023-02-24T00:39:09.188Z,15.27
2023-02-24T00:39:30.400Z,15.27
2023-02-24T00:39:44.255Z,15.00
2023-02-24T00:39:58.685Z,15.23
2023-02-24T00:40:12.183Z,14.60
2023-02-24T00:40:25.031Z,13.68
2023-02-24T00:40:37.813Z,13.25
2023-02-24T00:40:50.599Z,13.95
2023-02-24T00:41:14.391Z,15.60
2023-02-24T00:41:31.390Z,15.63
2023-02-24T00:41:44.693Z,16.00
2023-02-24T00:42:06.745Z,16.45
2023-02-24T00:42:19.584Z,15.70
2023-02-24T00:42:32.414Z,14.82
2023-02-24T00:42:45.673Z,14.25
2023-02-24T00:42:58.529Z,14.50
2023-02-24T00:43:14.127Z,14.57
2023-02-24T00:43:26.937Z,15.20
2023-02-24T00:43:40.256Z,15.40
2023-02-24T00:43:53.085Z,15.20
2023-02-24T00:44:08.605Z,17.42
2023-02-24T00:44:24.104Z,16.70
2023-02-24T00:44:38.831Z,14.40
2023-02-24T00:44:54.072Z,14.93
2023-02-24T00:45:10.366Z,16.17
2023-02-24T00:45:23.182Z,17.92
2023-02-24T00:45:39.089Z,17.33
2023-02-24T00:45:52.159Z,16.75
2023-02-24T00:46:11.484Z,15.43
2023-02-24T00:46:26.180Z,14.43
2023-02-24T00:46:40.811Z,14.40
2023-02-24T00:46:53.627Z,15.32
2023-02-24T00:47:07.640Z,15.48
2023-02-24T00:47:20.537Z,14.55
2023-02-24T00:47:38.867Z,15.93
2023-02-24T00:47:51.668Z,16.12
2023-02-24T00:48:04.813Z,15.63
2023-02-24T00:48:17.618Z,16.05
2023-02-24T00:48:31.546Z,15.55
2023-02-24T00:48:47.570Z,15.05
2023-02-24T00:49:04.406Z,14.70
2023-02-24T00:49:18.794Z,13.93
2023-02-24T00:49:32.045Z,14.02
2023-02-24T00:49:44.959Z,14.95
2023-02-24T00:49:57.752Z,16.08
2023-02-24T00:50:11.084Z,17.33
2023-02-24T00:50:24.902Z,18.08
2023-02-24T00:50:39.081Z,16.10
2023-02-24T00:50:52.313Z,15.73
2023-02-24T00:51:07.765Z,16.08
2023-02-24T00:51:23.425Z,14.90
2023-02-24T00:51:38.000Z,14.35
2023-02-24T00:51:54.299Z,14.70
2023-02-24T00:52:08.604Z,15.05
2023-02-24T00:52:22.005Z,14.55
2023-02-24T00:52:34.839Z,13.57
2023-02-24T00:52:48.442Z,14.10
2023-02-24T00:53:01.433Z,14.98
2023-02-24T00:53:14.263Z,14.48
2023-02-24T00:53:29.408Z,14.50
2023-02-24T00:53:42.586Z,14.35
2023-02-24T00:53:56.115Z,15.38
2023-02-24T00:54:10.206Z,16.95
2023-02-24T00:54:27.095Z,17.50
2023-02-24T00:54:40.985Z,16.73
2023-02-24T00:54:53.786Z,16.20
2023-02-24T00:55:15.146Z,15.82
2023-02-24T00:55:36.351Z,15.98
2023-02-24T00:55:49.768Z,14.27
2023-02-24T00:56:02.632Z,14.13
2023-02-24T00:56:16.275Z,13.55
2023-02-24T00:56:29.625Z,14.13
2023-02-24T00:56:43.366Z,14.98
2023-02-24T00:56:56.334Z,14.75
2023-02-24T00:57:09.341Z,14.07
2023-02-24T00:57:22.335Z,13.55
2023-02-24T00:57:35.459Z,14.38
2023-02-24T00:57:50.807Z,14.52
2023-02-24T00:58:04.704Z,14.50
2023-02-24T00:58:19.557Z,15.82
2023-02-24T00:58:32.617Z,15.25
2023-02-24T00:58:45.450Z,13.52
2023-02-24T00:58:59.396Z,13.13
2023-02-24T00:59:13.133Z,13.90
2023-02-24T00:59:26.202Z,15.10
2023-02-24T00:59:39.303Z,15.32
2023-02-24T00:59:52.233Z,15.57
2023-02-24T01:00:10.376Z,15.38
2023-02-24T01:00:23.639Z,15.07
2023-02-24T01:00:37.074Z,14.93
2023-02-24T01:00:49.917Z,15.43
2023-02-24T01:01:04.405Z,15.50
2023-02-24T01:01:19.841Z,14.90
2023-02-24T01:01:33.263Z,14.43
2023-02-24T01:01:46.223Z,14.68
2023-02-24T01:01:59.119Z,15.40
2023-02-24T01:02:12.030Z,15.07
2023-02-24T01:02:24.830Z,13.75
2023-02-24T01:02:38.366Z,14.45
2023-02-24T01:02:51.155Z,15.70
2023-02-24T01:03:04.093Z,15.38
2023-02-24T01:03:17.060Z,15.07
2023-02-24T01:03:30.216Z,14.60
2023-02-24T01:03:43.927Z,15.07
2023-02-24T01:03:56.909Z,15.25
2023-02-24T01:04:12.957Z,14.70
2023-02-24T01:04:25.800Z,16.27
2023-02-24T01:04:38.752Z,16.73
2023-02-24T01:04:51.663Z,14.68
2023-02-24T01:05:04.862Z,13.60
2023-02-24T01:05:17.772Z,14.30
2023-02-24T01:05:30.996Z,14.27
2023-02-24T01:05:43.786Z,14.02
2023-02-24T01:05:56.637Z,13.75
2023-02-24T01:06:09.621Z,13.93
2023-02-24T01:06:23.883Z,13.18
2023-02-24T01:06:40.473Z,13.50
2023-02-24T01:07:00.125Z,14.85
2023-02-24T01:07:13.499Z,15.40
2023-02-24T01:07:29.500Z,14.87
2023-02-24T01:07:42.307Z,15.00
2023-02-24T01:07:55.222Z,15.15
2023-02-24T01:08:08.103Z,14.45
2023-02-24T01:08:23.565Z,15.02
2023-02-24T01:08:38.563Z,15.48
2023-02-24T01:08:52.328Z,14.88
2023-02-24T01:09:08.273Z,16.05
2023-02-24T01:09:21.164Z,16.08
2023-02-24T01:09:34.890Z,13.98
2023-02-24T01:09:50.001Z,14.20
2023-02-24T01:10:05.131Z,15.73
2023-02-24T01:10:22.322Z,16.17
2023-02-24T01:10:35.146Z,15.25
2023-02-24T01:11:20.380Z,14.05
2023-02-24T01:11:52.912Z,15.13
2023-02-24T01:12:29.213Z,14.30
2023-02-24T01:12:50.850Z,14.48
2023-02-24T01:13:03.673Z,14.05
2023-02-24T01:13:16.467Z,14.82
2023-02-24T01:13:29.309Z,16.20
2023-02-24T01:13:42.089Z,16.45
2023-02-24T01:13:54.881Z,15.88
2023-02-24T01:14:09.349Z,15.13
2023-02-24T01:14:23.836Z,14.63
2023-02-24T01:14:36.720Z,15.35
2023-02-24T01:14:51.142Z,15.65
2023-02-24T01:15:05.082Z,15.15
2023-02-24T01:15:19.036Z,14.55
2023-02-24T01:15:31.864Z,13.73
2023-02-24T01:15:44.709Z,14.57
2023-02-24T01:16:03.296Z,15.63
2023-02-24T01:16:18.731Z,15.80
2023-02-24T01:16:31.902Z,15.73
2023-02-24T01:16:50.736Z,15.02
2023-02-24T01:17:04.094Z,13.27
2023-02-24T01:17:18.351Z,14.23
2023-02-24T01:17:31.237Z,14.65
2023-02-24T01:17:44.251Z,14.75
2023-02-24T01:17:57.090Z,15.60
2023-02-24T01:18:11.017Z,14.60
2023-02-24T01:18:23.829Z,13.57
2023-02-24T01:18:36.665Z,14.73
2023-02-24T01:18:49.470Z,15.90
2023-02-24T01:19:02.886Z,15.07
2023-02-24T01:19:18.840Z,13.50
2023-02-24T01:19:32.152Z,13.77
2023-02-24T01:19:45.615Z,14.00
2023-02-24T01:20:00.918Z,15.32
2023-02-24T01:20:17.959Z,15.13
2023-02-24T01:20:33.093Z,13.65
2023-02-24T01:20:45.888Z,16.02
2023-02-24T01:20:58.989Z,16.50
2023-02-24T01:21:12.772Z,15.60
2023-02-24T01:21:25.687Z,15.10
2023-02-24T01:21:38.503Z,15.40
2023-02-24T01:21:55.283Z,15.70
2023-02-24T01:22:10.051Z,16.00
2023-02-24T01:22:23.878Z,15.93
2023-02-24T01:22:39.726Z,15.73
2023-02-24T01:22:56.812Z,14.73
2023-02-24T01:23:09.604Z,14.57
2023-02-24T01:23:24.281Z,16.02
2023-02-24T01:23:37.324Z,16.60
2023-02-24T01:23:50.408Z,15.20
2023-02-24T01:24:03.288Z,13.77
2023-02-24T01:24:16.129Z,14.02
2023-02-24T01:24:31.025Z,14.70
2023-02-24T01:24:44.146Z,15.40
2023-02-24T01:24:56.975Z,15.15
2023-02-24T01:25:09.829Z,15.02
2023-02-24T01:25:22.756Z,14.40
2023-02-24T01:25:35.557Z,13.23
2023-02-24T01:25:48.441Z,13.62
2023-02-24T01:26:02.363Z,14.98
2023-02-24T01:26:15.786Z,16.10
2023-02-24T01:26:28.919Z,16.45
2023-02-24T01:26:42.714Z,15.82
2023-02-24T01:26:55.531Z,14.63
2023-02-24T01:27:08.432Z,14.00
2023-02-24T01:27:21.259Z,13.43
2023-02-24T01:27:37.061Z,13.73
2023-02-24T01:27:50.614Z,15.27
2023-02-24T01:28:03.428Z,16.40
2023-02-24T01:28:16.227Z,15.10
2023-02-24T01:28:29.024Z,14.73
2023-02-24T01:28:42.719Z,14.30
2023-02-24T01:28:55.744Z,15.73
2023-02-24T01:29:11.470Z,16.55
2023-02-24T01:29:25.716Z,16.10
2023-02-24T01:29:39.781Z,15.07
2023-02-24T01:29:53.590Z,14.80
2023-02-24T01:30:16.205Z,15.27
2023-02-24T01:30:29.266Z,13.93
2023-02-24T01:30:44.388Z,13.80
2023-02-24T01:31:05.370Z,15.07
2023-02-24T01:31:20.955Z,15.45
2023-02-24T01:31:34.151Z,16.37
2023-02-24T01:31:49.532Z,16.15
2023-02-24T01:32:03.072Z,14.15
2023-02-24T01:32:19.376Z,14.82
2023-02-24T01:32:32.492Z,14.85
2023-02-24T01:32:47.022Z,13.77
2023-02-24T01:33:00.285Z,14.60
2023-02-24T01:33:16.446Z,15.57
2023-02-24T01:33:30.088Z,15.85
2023-02-24T01:33:45.791Z,15.82
2023-02-24T01:33:58.587Z,15.60
2023-02-24T01:34:12.981Z,15.63
2023-02-24T01:34:26.381Z,16.10
2023-02-24T01:34:39.266Z,15.77
2023-02-24T01:34:52.161Z,15.88
2023-02-24T01:35:05.380Z,16.73
2023-02-24T01:35:18.157Z,15.13
2023-02-24T01:35:31.777Z,14.60
2023-02-24T01:35:44.589Z,15.50
2023-02-24T01:35:57.389Z,15.40
2023-02-24T01:36:10.863Z,14.27
2023-02-24T01:36:25.729Z,14.48
2023-02-24T01:36:39.779Z,16.10
2023-02-24T01:36:52.598Z,15.82
2023-02-24T01:37:05.399Z,14.60
2023-02-24T01:37:19.357Z,14.00
2023-02-24T01:37:32.502Z,14.10
2023-02-24T01:37:45.773Z,14.02
2023-02-24T01:37:59.183Z,13.77
2023-02-24T01:38:11.986Z,14.43
2023-02-24T01:38:25.357Z,14.80
2023-02-24T01:38:39.189Z,15.25
2023-02-24T01:38:52.159Z,14.55
2023-02-24T01:39:06.982Z,14.32
2023-02-24T01:39:19.958Z,14.52
2023-02-24T01:39:32.750Z,13.95
2023-02-24T01:39:46.528Z,13.48
2023-02-24T01:39:59.378Z,14.43
2023-02-24T01:40:18.666Z,14.90
2023-02-24T01:40:31.712Z,14.13
2023-02-24T01:40:44.693Z,13.93
2023-02-24T01:40:59.304Z,13.75
2023-02-24T01:41:14.064Z,14.68
2023-02-24T01:41:30.921Z,15.52
2023-02-24T01:41:45.151Z,16.05
2023-02-24T01:42:01.253Z,16.70
2023-02-24T01:42:21.937Z,15.40
2023-02-24T01:42:34.814Z,15.07
2023-02-24T01:42:47.766Z,14.98
2023-02-24T01:43:00.724Z,15.20
2023-02-24T01:43:13.560Z,15.27
2023-02-24T01:43:26.379Z,14.70
2023-02-24T01:43:58.943Z,13.82
2023-02-24T01:44:14.611Z,14.25
2023-02-24T01:44:32.487Z,14.73
2023-02-24T01:44:45.344Z,15.40
2023-02-24T01:45:03.515Z,15.32
2023-02-24T01:45:18.822Z,14.90
2023-02-24T01:45:36.705Z,14.50
2023-02-24T01:45:51.779Z,14.80
2023-02-24T01:46:04.618Z,14.32
2023-02-24T01:46:17.653Z,14.35
2023-02-24T01:46:33.678Z,14.73
2023-02-24T01:46:48.105Z,15.35
2023-02-24T01:47:01.450Z,16.08
2023-02-24T01:47:16.134Z,14.82
2023-02-24T01:47:31.322Z,13.23
2023-02-24T01:47:47.304Z,13.82
2023-02-24T01:48:01.879Z,14.02
2023-02-24T01:48:17.292Z,13.80
2023-02-24T01:48:30.109Z,13.65
2023-02-24T01:48:42.927Z,14.77
2023-02-24T01:48:58.791Z,15.65
2023-02-24T01:49:29.713Z,15.00
2023-02-24T01:49:44.045Z,13.73
2023-02-24T01:49:56.855Z,12.63
2023-02-24T01:50:10.402Z,13.18
2023-02-24T01:50:23.457Z,14.38
2023-02-24T01:50:36.699Z,15.10
2023-02-24T01:50:50.306Z,15.80
2023-02-24T01:51:03.147Z,16.55
2023-02-24T01:51:16.660Z,15.82
2023-02-24T01:51:32.158Z,15.25
2023-02-24T01:51:50.351Z,15.02
2023-02-24T01:52:08.149Z,15.55
2023-02-24T01:52:26.239Z,13.68
2023-02-24T01:52:39.100Z,14.25
2023-02-24T01:52:56.087Z,14.82
2023-02-24T01:53:08.979Z,15.07
2023-02-24T01:53:21.766Z,14.65
2023-02-24T01:53:34.551Z,14.32
2023-02-24T01:53:47.512Z,15.48
2023-02-24T01:54:01.025Z,16.37
2023-02-24T01:54:15.362Z,15.55
2023-02-24T01:54:30.792Z,14.45
2023-02-24T01:54:44.540Z,14.68
2023-02-24T01:55:14.458Z,15.48
2023-02-24T01:55:31.861Z,14.35
2023-02-24T01:55:51.938Z,16.40
2023-02-24T01:56:06.886Z,15.45
2023-02-24T01:56:19.684Z,14.72
2023-02-24T01:56:32.551Z,15.48
2023-02-24T01:56:47.641Z,15.10
2023-02-24T01:57:00.446Z,14.35
2023-02-24T01:57:16.642Z,15.20
2023-02-24T01:57:31.174Z,16.40
2023-02-24T01:57:46.191Z,15.95
2023-02-24T01:58:00.407Z,15.75
2023-02-24T01:58:25.149Z,14.77
2023-02-24T01:58:38.021Z,16.20
2023-02-24T01:58:50.821Z,16.10
2023-02-24T01:59:03.617Z,15.75
2023-02-24T01:59:16.428Z,14.52
2023-02-24T01:59:29.713Z,14.80
2023-02-24T01:59:43.761Z,15.23
2023-02-24T02:00:02.192Z,13.50
2023-02-24T02:00:36.976Z,14.18
2023-02-24T02:00:49.880Z,15.68
2023-02-24T02:01:08.774Z,14.87
2023-02-24T02:01:21.894Z,14.80
2023-02-24T02:01:40.761Z,15.73
2023-02-24T02:01:55.309Z,16.30
2023-02-24T02:02:08.565Z,16.80
2023-02-24T02:02:22.167Z,15.90
2023-02-24T02:02:35.217Z,17.37
2023-02-24T02:02:50.469Z,17.50
2023-02-24T02:03:09.856Z,14.98
2023-02-24T02:03:31.188Z,14.50
2023-02-24T02:03:44.420Z,16.02
2023-02-24T02:04:00.655Z,16.90
2023-02-24T02:04:28.059Z,17.52
2023-02-24T02:04:44.902Z,17.17
2023-02-24T02:05:01.117Z,16.02
2023-02-24T02:05:14.869Z,15.27
2023-02-24T02:05:27.743Z,16.40
2023-02-24T02:05:40.820Z,16.98
2023-02-24T02:05:56.123Z,17.10
2023-02-24T02:06:11.215Z,16.20
2023-02-24T02:06:24.051Z,14.63
2023-02-24T02:06:39.663Z,14.35
2023-02-24T02:06:52.824Z,14.45
2023-02-24T02:07:06.057Z,15.23
2023-02-24T02:07:21.903Z,16.85
2023-02-24T02:07:34.731Z,17.58
2023-02-24T02:07:47.520Z,16.37
2023-02-24T02:08:00.570Z,16.83
2023-02-24T02:08:13.701Z,16.27
2023-02-24T02:08:26.515Z,15.00
2023-02-24T02:08:42.731Z,15.18
2023-02-24T02:08:55.524Z,15.20
2023-02-24T02:09:08.608Z,15.50
2023-02-24T02:09:21.474Z,15.88
2023-02-24T02:09:34.826Z,17.85
2023-02-24T02:09:47.825Z,16.48
2023-02-24T02:10:04.283Z,15.07
2023-02-24T02:10:18.562Z,16.08
2023-02-24T02:10:32.040Z,18.08
2023-02-24T02:10:45.175Z,18.50
2023-02-24T02:11:01.605Z,15.98
2023-02-24T02:11:20.373Z,15.73
2023-02-24T02:11:33.471Z,16.45
2023-02-24T02:11:49.181Z,16.95
2023-02-24T02:12:02.017Z,16.70
2023-02-24T02:12:15.178Z,15.70
2023-02-24T02:12:28.119Z,15.70
2023-02-24T02:12:44.319Z,16.27
2023-02-24T02:12:57.571Z,16.17
2023-02-24T02:13:14.481Z,15.88
2023-02-24T02:13:27.679Z,17.37
2023-02-24T02:13:43.176Z,17.98
2023-02-24T02:13:56.953Z,16.98
2023-02-24T02:14:09.872Z,16.23
2023-02-24T02:14:25.223Z,16.37
2023-02-24T02:14:39.865Z,16.50
2023-02-24T02:14:53.832Z,16.58
2023-02-24T02:15:08.839Z,15.43
2023-02-24T02:15:21.767Z,15.07
2023-02-24T02:15:36.956Z,16.45
2023-02-24T02:16:17.917Z,16.27
2023-02-24T02:16:39.393Z,16.05
2023-02-24T02:17:16.800Z,16.90
2023-02-24T02:18:02.807Z,18.00
2023-02-24T02:18:24.283Z,18.25
2023-02-24T02:18:48.026Z,16.30
2023-02-24T02:19:03.606Z,18.17
2023-02-24T02:19:55.557Z,16.95
2023-02-24T02:20:36.781Z,16.80
2023-02-24T02:21:08.889Z,18.15
2023-02-24T02:41:04.366Z,17.05
2023-02-24T02:41:28.809Z,14.85
2023-02-24T02:41:53.233Z,16.12
2023-02-24T02:42:30.308Z,16.33
2023-02-24T02:42:46.514Z,15.98
2023-02-24T02:43:00.723Z,15.30
2023-02-24T02:43:24.630Z,16.02
2023-02-24T02:43:49.041Z,16.95
2023-02-24T02:44:24.310Z,16.15
2023-02-24T02:44:47.617Z,16.08
2023-02-24T02:45:13.387Z,16.10
2023-02-24T02:45:37.352Z,16.50
2023-02-24T02:45:57.647Z,17.12
2023-02-24T02:46:34.799Z,17.40
2023-02-24T02:47:09.008Z,17.77
2023-02-24T02:47:30.343Z,15.25
2023-02-24T02:47:51.998Z,16.77
2023-02-24T02:48:20.286Z,16.30
2023-02-24T02:48:57.298Z,16.05
2023-02-24T02:49:17.042Z,16.33
2023-02-24T02:49:41.789Z,17.77
2023-02-24T02:50:32.471Z,15.88
2023-02-24T02:50:48.870Z,15.88
2023-02-24T02:51:10.944Z,16.55
2023-02-24T02:51:31.348Z,16.37
2023-02-24T02:51:53.943Z,15.70
2023-02-24T03:28:34.223Z,16.80
2023-02-24T03:29:22.921Z,16.17
2023-02-24T03:29:55.757Z,15.85
2023-02-24T03:30:16.074Z,16.75
2023-02-24T03:30:53.426Z,17.23
2023-02-24T03:31:33.274Z,16.65
2023-02-24T03:31:55.433Z,16.45
2023-02-24T03:32:18.685Z,15.90
2023-02-24T03:32:36.633Z,16.35
2023-02-24T03:32:57.545Z,16.17
2023-02-24T03:33:18.702Z,16.30
2023-02-24T03:33:38.378Z,15.90
2023-02-24T03:34:05.545Z,16.73
2023-02-24T03:34:49.525Z,14.80
2023-02-24T03:35:15.123Z,16.25
2023-02-24T03:35:29.906Z,14.52
2023-02-24T03:35:43.321Z,14.70
2023-02-24T03:36:01.577Z,15.70
2023-02-24T03:36:15.162Z,15.85
2023-02-24T03:36:28.651Z,16.80
2023-02-24T03:36:42.681Z,17.85
2023-02-24T03:36:56.006Z,16.58
2023-02-24T03:37:08.797Z,16.58
2023-02-24T03:37:27.438Z,16.80
2023-02-24T03:37:41.181Z,16.10
2023-02-24T03:37:57.532Z,16.27
2023-02-24T03:38:10.868Z,16.52
2023-02-24T03:38:24.468Z,16.35
2023-02-24T03:38:38.632Z,17.00
2023-02-24T03:38:51.522Z,17.15
2023-02-24T03:39:05.761Z,16.35
2023-02-24T03:39:18.607Z,16.83
2023-02-24T03:39:32.722Z,16.30
2023-02-24T03:39:47.701Z,14.73
2023-02-24T03:40:08.218Z,15.43
2023-02-24T03:40:21.734Z,16.45
2023-02-24T03:40:35.499Z,16.62
2023-02-24T03:40:48.291Z,16.42
2023-02-24T03:41:01.093Z,15.68
2023-02-24T03:41:13.875Z,15.48
2023-02-24T03:41:30.764Z,16.02
2023-02-24T03:42:09.376Z,17.98
2023-02-24T03:42:22.396Z,15.45
2023-02-24T03:42:35.235Z,15.30
2023-02-24T03:42:49.894Z,16.62
2023-02-24T03:43:11.870Z,16.98
2023-02-24T03:43:29.954Z,16.02
2023-02-24T03:43:46.605Z,16.10
2023-02-24T03:43:59.434Z,15.80
2023-02-24T03:44:12.960Z,14.85
2023-02-24T03:44:25.752Z,16.12
2023-02-24T03:44:38.610Z,16.42
2023-02-24T03:44:51.407Z,17.05
2023-02-24T03:45:06.430Z,17.20
2023-02-24T03:45:22.498Z,16.80
2023-02-24T03:45:37.988Z,15.98
2023-02-24T03:45:51.073Z,16.05
2023-02-24T03:46:05.298Z,15.85
2023-02-24T03:46:18.645Z,14.95
2023-02-24T03:46:31.918Z,14.65
2023-02-24T03:47:03.544Z,15.57
2023-02-24T03:47:17.208Z,19.00
2023-02-24T03:47:30.305Z,19.20
2023-02-24T03:47:46.692Z,17.73
2023-02-24T03:47:59.862Z,16.30
2023-02-24T03:48:13.070Z,15.90
2023-02-24T03:48:27.219Z,15.23
2023-02-24T03:48:46.573Z,14.93
2023-02-24T03:49:03.042Z,16.10
2023-02-24T03:49:16.790Z,17.98
2023-02-24T03:49:29.763Z,17.70
2023-02-24T03:49:43.816Z,16.85
2023-02-24T03:49:56.682Z,16.00
2023-02-24T03:50:19.573Z,16.30
2023-02-24T03:50:32.498Z,15.45
2023-02-24T03:50:45.352Z,14.35
2023-02-24T03:50:59.443Z,14.75
2023-02-24T03:51:17.888Z,15.77
2023-02-24T03:51:31.729Z,16.12
2023-02-24T03:52:08.845Z,16.20
2023-02-24T03:52:49.545Z,15.55
2023-02-24T03:53:06.521Z,16.00
2023-02-24T03:53:31.116Z,16.92
2023-02-24T03:54:19.273Z,15.68
2023-02-24T03:54:59.342Z,16.52
2023-02-24T03:55:21.613Z,16.48
2023-02-24T03:55:37.788Z,16.62
2023-02-24T03:55:58.715Z,15.25
2023-02-24T03:56:31.918Z,15.55
2023-02-24T03:57:06.134Z,16.42
2023-02-24T03:57:54.883Z,15.90
2023-02-24T03:58:47.354Z,14.43
2023-02-24T03:59:04.140Z,15.68
2023-02-24T03:59:38.316Z,15.90
2023-02-24T03:59:58.808Z,15.48
2023-02-24T04:00:22.846Z,14.45
2023-02-24T04:00:44.720Z,14.93
2023-02-24T04:01:30.994Z,15.63
2023-02-24T04:01:51.954Z,16.40
2023-02-24T04:02:09.885Z,15.57
2023-02-24T04:02:24.680Z,15.32
2023-02-24T04:02:37.557Z,16.00
2023-02-24T04:02:51.223Z,16.77
2023-02-24T04:03:12.727Z,17.02
2023-02-24T04:03:33.613Z,16.67
2023-02-24T04:03:52.220Z,17.08
2023-02-24T04:04:37.040Z,17.35
2023-02-24T04:04:55.388Z,15.75
2023-02-24T04:05:13.761Z,16.73
2023-02-24T04:05:27.616Z,16.52
2023-02-24T04:05:47.618Z,17.08
2023-02-24T04:06:06.349Z,17.30
2023-02-24T04:06:32.164Z,16.70
2023-02-24T04:07:11.394Z,15.43
2023-02-24T04:07:55.895Z,15.63
2023-02-24T04:08:08.862Z,16.90
2023-02-24T04:08:21.666Z,17.10
2023-02-24T04:09:05.617Z,17.27
2023-02-24T04:09:34.799Z,15.30
2023-02-24T04:09:50.564Z,16.80
2023-02-24T04:10:15.279Z,17.33
2023-02-24T04:10:40.815Z,16.55
2023-02-24T04:11:00.321Z,15.50
2023-02-24T04:11:27.644Z,16.92
2023-02-24T04:11:50.575Z,16.40
2023-02-24T04:12:35.272Z,16.70
2023-02-24T04:12:54.623Z,15.05
2023-02-24T04:13:35.283Z,15.98
2023-02-24T04:13:51.243Z,19.02
2023-02-24T04:14:09.934Z,17.65
2023-02-24T04:14:34.133Z,16.40
2023-02-24T04:15:04.773Z,16.35
2023-02-24T04:15:26.428Z,15.75
2023-02-24T04:15:43.874Z,16.37
2023-02-24T04:16:00.412Z,16.70
2023-02-24T04:16:28.046Z,15.98
2023-02-24T04:16:57.314Z,15.63
2023-02-24T04:17:13.496Z,15.80
2023-02-24T04:17:38.529Z,16.50
2023-02-24T04:17:54.051Z,15.38
2023-02-24T04:18:16.685Z,15.77
2023-02-24T04:18:31.091Z,15.77
2023-02-24T04:18:47.495Z,16.35
2023-02-24T04:19:03.803Z,17.02
2023-02-24T04:19:18.424Z,17.95
2023-02-24T04:19:33.200Z,16.87
2023-02-24T04:19:48.017Z,15.93
2023-02-24T04:20:06.577Z,15.40
2023-02-24T04:20:20.969Z,16.06
2023-02-24T04:20:34.757Z,16.83
2023-02-24T04:20:53.109Z,16.70
2023-02-24T04:21:05.983Z,15.82
2023-02-24T04:21:19.361Z,16.67
2023-02-24T04:21:32.329Z,17.08
2023-02-24T04:21:45.401Z,16.80
2023-02-24T04:21:58.828Z,16.35
2023-02-24T04:22:12.574Z,15.85
2023-02-24T04:22:25.710Z,15.80
2023-02-24T04:22:38.500Z,16.30
2023-02-24T04:22:54.589Z,15.98
2023-02-24T04:23:10.944Z,16.15
2023-02-24T04:23:38.689Z,16.95
2023-02-24T04:23:51.542Z,16.80
2023-02-24T04:24:11.550Z,15.95
2023-02-24T04:24:28.253Z,16.33
2023-02-24T04:24:41.412Z,16.42
2023-02-24T04:24:58.091Z,16.00
2023-02-24T04:25:13.637Z,16.10
2023-02-24T04:25:26.640Z,16.12
2023-02-24T04:25:39.572Z,15.63
2023-02-24T04:25:53.025Z,15.93
2023-02-24T04:26:06.406Z,15.52
2023-02-24T04:26:19.445Z,16.15
2023-02-24T04:26:32.242Z,17.37
2023-02-24T04:26:45.714Z,17.48
2023-02-24T04:26:59.397Z,16.40
2023-02-24T04:27:12.284Z,15.95
2023-02-24T04:27:25.291Z,14.85
2023-02-24T04:27:38.180Z,14.55
2023-02-24T04:27:52.632Z,15.15